sensor_id;sensor_type;location;lat;lon;timestamp;temperature;humidity
55211;DHT22;41082;52.822;6.666;2022-09-16T00:01:16;12.20;99.90
55211;DHT22;41082;52.822;6.666;2022-09-16T00:03:42;12.20;99.90
55211;DHT22;41082;52.822;6.666;2022-09-16T00:06:19;12.20;99.90
55211;DHT22;41082;52.822;6.666;2022-09-16T00:08:46;12.30;99.90
55211;DHT22;41082;52.822;6.666;2022-09-16T00:11:12;12.20;99.90
55211;DHT22;41082;52.822;6.666;2022-09-16T00:13:38;12.20;99.90
55211;DHT22;41082;52.822;6.666;2022-09-16T00:16:24;12.30;99.90
55211;DHT22;41082;52.822;6.666;2022-09-16T00:18:58;12.30;99.90
55211;DHT22;41082;52.822;6.666;2022-09-16T00:21:25;12.30;99.90
55211;DHT22;41082;52.822;6.666;2022-09-16T00:23:51;12.30;99.90
55211;DHT22;41082;52.822;6.666;2022-09-16T00:26:17;12.30;99.90
55211;DHT22;41082;52.822;6.666;2022-09-16T00:28:43;12.30;99.90
55211;DHT22;41082;52.822;6.666;2022-09-16T00:31:09;12.30;99.90
55211;DHT22;41082;52.822;6.666;2022-09-16T00:33:34;12.30;99.90
55211;DHT22;41082;52.822;6.666;2022-09-16T00:36:11;12.30;99.90
55211;DHT22;41082;52.822;6.666;2022-09-16T00:38:37;12.40;99.90
55211;DHT22;41082;52.822;6.666;2022-09-16T00:41:03;12.30;99.90
55211;DHT22;41082;52.822;6.666;2022-09-16T00:46:11;12.40;99.90
55211;DHT22;41082;52.822;6.666;2022-09-16T00:48:37;12.40;99.90
55211;DHT22;41082;52.822;6.666;2022-09-16T00:51:04;12.40;99.90
55211;DHT22;41082;52.822;6.666;2022-09-16T00:53:38;12.40;99.90
55211;DHT22;41082;52.822;6.666;2022-09-16T00:56:08;12.40;99.90
55211;DHT22;41082;52.822;6.666;2022-09-16T00:58:45;12.40;99.90
55211;DHT22;41082;52.822;6.666;2022-09-16T01:01:11;12.40;99.90
55211;DHT22;41082;52.822;6.666;2022-09-16T01:03:44;12.40;99.90
55211;DHT22;41082;52.822;6.666;2022-09-16T01:06:11;12.40;99.90
55211;DHT22;41082;52.822;6.666;2022-09-16T01:08:40;12.40;99.90
55211;DHT22;41082;52.822;6.666;2022-09-16T01:11:06;12.40;99.90
55211;DHT22;41082;52.822;6.666;2022-09-16T01:13:32;12.40;99.90
55211;DHT22;41082;52.822;6.666;2022-09-16T01:16:09;12.40;99.90
55211;DHT22;41082;52.822;6.666;2022-09-16T01:18:54;12.40;99.90
55211;DHT22;41082;52.822;6.666;2022-09-16T01:21:42;12.40;99.90
55211;DHT22;41082;52.822;6.666;2022-09-16T01:27:28;12.40;99.90
55211;DHT22;41082;52.822;6.666;2022-09-16T01:33:23;12.50;99.90
55211;DHT22;41082;52.822;6.666;2022-09-16T01:39:00;12.40;99.90
55211;DHT22;41082;52.822;6.666;2022-09-16T01:44:34;12.40;99.90
55211;DHT22;41082;52.822;6.666;2022-09-16T01:47:35;12.40;99.90
55211;DHT22;41082;52.822;6.666;2022-09-16T01:53:08;12.40;99.90
55211;DHT22;41082;52.822;6.666;2022-09-16T01:55:38;12.40;99.90
55211;DHT22;41082;52.822;6.666;2022-09-16T01:58:17;12.40;99.90
55211;DHT22;41082;52.822;6.666;2022-09-16T02:00:45;12.40;99.90
55211;DHT22;41082;52.822;6.666;2022-09-16T02:03:15;12.50;99.90
55211;DHT22;41082;52.822;6.666;2022-09-16T02:05:50;12.40;99.90
55211;DHT22;41082;52.822;6.666;2022-09-16T02:08:33;12.40;99.90
55211;DHT22;41082;52.822;6.666;2022-09-16T02:11:01;12.40;99.90
55211;DHT22;41082;52.822;6.666;2022-09-16T02:13:43;12.40;99.90
55211;DHT22;41082;52.822;6.666;2022-09-16T02:16:16;12.40;99.90
55211;DHT22;41082;52.822;6.666;2022-09-16T02:18:45;12.40;99.90
55211;DHT22;41082;52.822;6.666;2022-09-16T02:21:14;12.40;99.90
55211;DHT22;41082;52.822;6.666;2022-09-16T02:23:44;12.40;99.90
55211;DHT22;41082;52.822;6.666;2022-09-16T02:26:14;12.40;99.90
55211;DHT22;41082;52.822;6.666;2022-09-16T02:28:41;12.40;99.90
55211;DHT22;41082;52.822;6.666;2022-09-16T02:31:09;12.40;99.90
55211;DHT22;41082;52.822;6.666;2022-09-16T02:33:50;12.40;99.90
55211;DHT22;41082;52.822;6.666;2022-09-16T02:36:20;12.40;99.90
55211;DHT22;41082;52.822;6.666;2022-09-16T02:38:51;12.40;99.90
55211;DHT22;41082;52.822;6.666;2022-09-16T02:41:17;12.40;99.90
55211;DHT22;41082;52.822;6.666;2022-09-16T02:43:44;12.30;99.90
55211;DHT22;41082;52.822;6.666;2022-09-16T02:49:10;12.30;99.90
55211;DHT22;41082;52.822;6.666;2022-09-16T02:57:25;12.10;99.90
55211;DHT22;41082;52.822;6.666;2022-09-16T02:59:52;12.10;99.90
55211;DHT22;41082;52.822;6.666;2022-09-16T03:02:17;12.10;99.90
55211;DHT22;41082;52.822;6.666;2022-09-16T03:04:44;12.10;99.90
55211;DHT22;41082;52.822;6.666;2022-09-16T03:07:10;12.10;99.90
55211;DHT22;41082;52.822;6.666;2022-09-16T03:09:40;12.00;99.90
55211;DHT22;41082;52.822;6.666;2022-09-16T03:15:25;12.00;99.90
55211;DHT22;41082;52.822;6.666;2022-09-16T03:24:07;12.00;99.90
55211;DHT22;41082;52.822;6.666;2022-09-16T03:29:43;12.00;99.90
55211;DHT22;41082;52.822;6.666;2022-09-16T03:35:05;12.00;99.90
55211;DHT22;41082;52.822;6.666;2022-09-16T03:37:33;12.00;99.90
55211;DHT22;41082;52.822;6.666;2022-09-16T03:40:07;12.00;99.90
55211;DHT22;41082;52.822;6.666;2022-09-16T03:42:34;12.00;99.90
55211;DHT22;41082;52.822;6.666;2022-09-16T03:45:00;12.00;99.90
55211;DHT22;41082;52.822;6.666;2022-09-16T03:47:25;12.00;99.90
55211;DHT22;41082;52.822;6.666;2022-09-16T03:49:51;12.00;99.90
55211;DHT22;41082;52.822;6.666;2022-09-16T03:52:16;12.00;99.90
55211;DHT22;41082;52.822;6.666;2022-09-16T03:54:45;12.00;99.90
55211;DHT22;41082;52.822;6.666;2022-09-16T03:57:10;11.90;99.90
55211;DHT22;41082;52.822;6.666;2022-09-16T03:59:36;11.90;99.90
55211;DHT22;41082;52.822;6.666;2022-09-16T04:02:02;11.90;99.90
55211;DHT22;41082;52.822;6.666;2022-09-16T04:04:27;11.90;99.90
55211;DHT22;41082;52.822;6.666;2022-09-16T04:06:53;11.90;99.90
55211;DHT22;41082;52.822;6.666;2022-09-16T04:09:18;11.80;99.90
55211;DHT22;41082;52.822;6.666;2022-09-16T04:11:44;11.90;99.90
55211;DHT22;41082;52.822;6.666;2022-09-16T04:14:09;11.80;99.90
55211;DHT22;41082;52.822;6.666;2022-09-16T04:16:35;11.80;99.90
55211;DHT22;41082;52.822;6.666;2022-09-16T04:19:01;11.80;99.90
55211;DHT22;41082;52.822;6.666;2022-09-16T04:21:27;11.90;99.90
55211;DHT22;41082;52.822;6.666;2022-09-16T04:23:53;11.90;99.90
55211;DHT22;41082;52.822;6.666;2022-09-16T04:26:19;11.80;99.90
55211;DHT22;41082;52.822;6.666;2022-09-16T04:28:45;11.80;99.90
55211;DHT22;41082;52.822;6.666;2022-09-16T04:31:13;11.80;99.90
55211;DHT22;41082;52.822;6.666;2022-09-16T04:33:40;11.80;99.90
55211;DHT22;41082;52.822;6.666;2022-09-16T04:36:08;11.80;99.90
55211;DHT22;41082;52.822;6.666;2022-09-16T04:38:35;11.70;99.90
55211;DHT22;41082;52.822;6.666;2022-09-16T04:41:07;11.70;99.90
55211;DHT22;41082;52.822;6.666;2022-09-16T04:43:33;11.70;99.90
55211;DHT22;41082;52.822;6.666;2022-09-16T04:45:59;11.70;99.90
55211;DHT22;41082;52.822;6.666;2022-09-16T04:48:25;11.60;99.90
55211;DHT22;41082;52.822;6.666;2022-09-16T04:50:52;11.60;99.90
55211;DHT22;41082;52.822;6.666;2022-09-16T04:53:19;11.60;99.90
55211;DHT22;41082;52.822;6.666;2022-09-16T04:55:45;11.60;99.90
55211;DHT22;41082;52.822;6.666;2022-09-16T04:58:11;11.60;99.90
55211;DHT22;41082;52.822;6.666;2022-09-16T05:00:37;11.60;99.90
55211;DHT22;41082;52.822;6.666;2022-09-16T05:03:03;11.60;99.90
55211;DHT22;41082;52.822;6.666;2022-09-16T05:05:28;11.50;99.90
55211;DHT22;41082;52.822;6.666;2022-09-16T05:07:54;11.50;99.90
55211;DHT22;41082;52.822;6.666;2022-09-16T05:10:19;11.50;99.90
55211;DHT22;41082;52.822;6.666;2022-09-16T05:12:50;11.50;99.90
55211;DHT22;41082;52.822;6.666;2022-09-16T05:15:16;11.50;99.90
55211;DHT22;41082;52.822;6.666;2022-09-16T05:17:42;11.50;99.90
55211;DHT22;41082;52.822;6.666;2022-09-16T05:20:08;11.50;99.90
55211;DHT22;41082;52.822;6.666;2022-09-16T05:22:33;11.50;99.90
55211;DHT22;41082;52.822;6.666;2022-09-16T05:24:59;11.50;99.90
55211;DHT22;41082;52.822;6.666;2022-09-16T05:27:24;11.50;99.90
55211;DHT22;41082;52.822;6.666;2022-09-16T05:29:52;11.50;99.90
55211;DHT22;41082;52.822;6.666;2022-09-16T05:32:18;11.40;99.90
55211;DHT22;41082;52.822;6.666;2022-09-16T05:34:43;11.40;99.90
55211;DHT22;41082;52.822;6.666;2022-09-16T05:37:09;11.40;99.90
55211;DHT22;41082;52.822;6.666;2022-09-16T05:39:34;11.40;99.90
55211;DHT22;41082;52.822;6.666;2022-09-16T05:42:00;11.40;99.90
55211;DHT22;41082;52.822;6.666;2022-09-16T05:44:26;11.40;99.90
55211;DHT22;41082;52.822;6.666;2022-09-16T05:46:53;11.40;99.90
55211;DHT22;41082;52.822;6.666;2022-09-16T05:49:19;11.40;99.90
55211;DHT22;41082;52.822;6.666;2022-09-16T05:51:46;11.40;99.90
55211;DHT22;41082;52.822;6.666;2022-09-16T05:54:12;11.40;99.90
55211;DHT22;41082;52.822;6.666;2022-09-16T05:56:38;11.30;99.90
55211;DHT22;41082;52.822;6.666;2022-09-16T05:59:03;11.30;99.90
55211;DHT22;41082;52.822;6.666;2022-09-16T06:01:32;11.40;99.90
55211;DHT22;41082;52.822;6.666;2022-09-16T06:04:00;11.40;99.90
55211;DHT22;41082;52.822;6.666;2022-09-16T06:06:28;11.50;99.90
55211;DHT22;41082;52.822;6.666;2022-09-16T06:08:56;11.50;99.90
55211;DHT22;41082;52.822;6.666;2022-09-16T06:11:23;11.60;99.90
55211;DHT22;41082;52.822;6.666;2022-09-16T06:13:54;11.60;99.90
55211;DHT22;41082;52.822;6.666;2022-09-16T06:16:24;11.60;99.90
55211;DHT22;41082;52.822;6.666;2022-09-16T06:18:51;11.70;99.90
55211;DHT22;41082;52.822;6.666;2022-09-16T06:21:17;11.70;99.90
55211;DHT22;41082;52.822;6.666;2022-09-16T06:23:43;11.70;99.90
55211;DHT22;41082;52.822;6.666;2022-09-16T06:26:16;11.70;99.90
55211;DHT22;41082;52.822;6.666;2022-09-16T06:28:42;11.80;99.90
55211;DHT22;41082;52.822;6.666;2022-09-16T06:33:39;12.00;99.90
55211;DHT22;41082;52.822;6.666;2022-09-16T06:36:17;12.00;99.90
55211;DHT22;41082;52.822;6.666;2022-09-16T06:38:44;12.10;99.90
55211;DHT22;41082;52.822;6.666;2022-09-16T06:41:11;12.10;99.90
55211;DHT22;41082;52.822;6.666;2022-09-16T06:43:37;12.10;99.90
55211;DHT22;41082;52.822;6.666;2022-09-16T06:46:08;12.00;99.90
55211;DHT22;41082;52.822;6.666;2022-09-16T06:48:38;12.10;99.90
55211;DHT22;41082;52.822;6.666;2022-09-16T06:51:08;12.10;99.90
55211;DHT22;41082;52.822;6.666;2022-09-16T06:53:34;12.10;99.90
55211;DHT22;41082;52.822;6.666;2022-09-16T06:56:01;12.20;99.90
55211;DHT22;41082;52.822;6.666;2022-09-16T06:58:27;12.20;99.90
55211;DHT22;41082;52.822;6.666;2022-09-16T07:00:55;12.20;99.90
55211;DHT22;41082;52.822;6.666;2022-09-16T07:03:21;12.30;99.90
55211;DHT22;41082;52.822;6.666;2022-09-16T07:05:57;12.30;99.90
55211;DHT22;41082;52.822;6.666;2022-09-16T07:08:24;12.30;99.90
55211;DHT22;41082;52.822;6.666;2022-09-16T07:13:26;12.50;99.90
55211;DHT22;41082;52.822;6.666;2022-09-16T07:15:52;12.50;99.90
55211;DHT22;41082;52.822;6.666;2022-09-16T07:18:18;12.50;99.90
55211;DHT22;41082;52.822;6.666;2022-09-16T07:20:44;12.60;99.90
55211;DHT22;41082;52.822;6.666;2022-09-16T07:23:10;12.70;99.90
55211;DHT22;41082;52.822;6.666;2022-09-16T07:25:36;12.70;99.90
55211;DHT22;41082;52.822;6.666;2022-09-16T07:28:02;12.80;99.90
55211;DHT22;41082;52.822;6.666;2022-09-16T07:30:29;12.90;99.90
55211;DHT22;41082;52.822;6.666;2022-09-16T07:33:07;12.90;99.90
55211;DHT22;41082;52.822;6.666;2022-09-16T07:35:45;13.00;99.90
55211;DHT22;41082;52.822;6.666;2022-09-16T07:41:38;13.10;99.90
55211;DHT22;41082;52.822;6.666;2022-09-16T07:44:14;13.10;99.90
55211;DHT22;41082;52.822;6.666;2022-09-16T07:50:05;13.20;99.90
55211;DHT22;41082;52.822;6.666;2022-09-16T07:52:54;13.40;99.90
55211;DHT22;41082;52.822;6.666;2022-09-16T07:55:33;13.50;99.90
55211;DHT22;41082;52.822;6.666;2022-09-16T07:58:10;13.60;99.90
55211;DHT22;41082;52.822;6.666;2022-09-16T08:00:39;13.70;99.90
55211;DHT22;41082;52.822;6.666;2022-09-16T08:03:07;13.70;99.90
55211;DHT22;41082;52.822;6.666;2022-09-16T08:05:39;13.80;99.90
55211;DHT22;41082;52.822;6.666;2022-09-16T08:08:33;13.90;99.90
55211;DHT22;41082;52.822;6.666;2022-09-16T08:11:04;13.90;99.90
55211;DHT22;41082;52.822;6.666;2022-09-16T08:13:32;14.00;99.90
55211;DHT22;41082;52.822;6.666;2022-09-16T08:16:00;14.10;99.90
55211;DHT22;41082;52.822;6.666;2022-09-16T08:18:27;14.10;99.90
55211;DHT22;41082;52.822;6.666;2022-09-16T08:20:52;14.30;99.90
55211;DHT22;41082;52.822;6.666;2022-09-16T08:23:18;14.30;99.90
55211;DHT22;41082;52.822;6.666;2022-09-16T08:25:44;14.40;99.90
55211;DHT22;41082;52.822;6.666;2022-09-16T08:28:15;14.50;99.90
55211;DHT22;41082;52.822;6.666;2022-09-16T08:30:42;14.60;99.90
55211;DHT22;41082;52.822;6.666;2022-09-16T08:33:08;14.70;99.90
55211;DHT22;41082;52.822;6.666;2022-09-16T08:35:34;14.80;99.90
55211;DHT22;41082;52.822;6.666;2022-09-16T08:38:00;14.90;99.90
55211;DHT22;41082;52.822;6.666;2022-09-16T08:40:26;14.90;99.90
55211;DHT22;41082;52.822;6.666;2022-09-16T08:43:21;15.00;99.90
55211;DHT22;41082;52.822;6.666;2022-09-16T08:51:23;15.40;99.90
55211;DHT22;41082;52.822;6.666;2022-09-16T08:53:55;15.40;99.90
55211;DHT22;41082;52.822;6.666;2022-09-16T08:56:23;15.40;99.90
55211;DHT22;41082;52.822;6.666;2022-09-16T08:58:54;15.40;99.90
55211;DHT22;41082;52.822;6.666;2022-09-16T09:01:35;15.40;99.90
55211;DHT22;41082;52.822;6.666;2022-09-16T09:04:02;15.40;99.90
55211;DHT22;41082;52.822;6.666;2022-09-16T09:09:30;15.50;99.90
55211;DHT22;41082;52.822;6.666;2022-09-16T09:12:05;15.70;99.90
55211;DHT22;41082;52.822;6.666;2022-09-16T09:14:50;15.70;99.90
55211;DHT22;41082;52.822;6.666;2022-09-16T09:28:48;15.70;98.80
55211;DHT22;41082;52.822;6.666;2022-09-16T09:36:39;16.10;94.40
55211;DHT22;41082;52.822;6.666;2022-09-16T09:39:27;16.10;95.90
55211;DHT22;41082;52.822;6.666;2022-09-16T09:42:09;16.20;95.90
55211;DHT22;41082;52.822;6.666;2022-09-16T09:44:55;16.40;94.80
55211;DHT22;41082;52.822;6.666;2022-09-16T09:50:48;16.60;90.10
55211;DHT22;41082;52.822;6.666;2022-09-16T09:53:27;16.70;92.70
55211;DHT22;41082;52.822;6.666;2022-09-16T09:55:59;16.80;90.70
55211;DHT22;41082;52.822;6.666;2022-09-16T09:58:43;16.90;88.90
55211;DHT22;41082;52.822;6.666;2022-09-16T10:01:12;16.90;85.50
55211;DHT22;41082;52.822;6.666;2022-09-16T10:03:40;17.00;83.10
55211;DHT22;41082;52.822;6.666;2022-09-16T10:06:06;17.10;78.50
55211;DHT22;41082;52.822;6.666;2022-09-16T10:08:37;17.00;75.10
55211;DHT22;41082;52.822;6.666;2022-09-16T10:11:21;17.10;75.00
55211;DHT22;41082;52.822;6.666;2022-09-16T10:14:00;17.10;76.90
55211;DHT22;41082;52.822;6.666;2022-09-16T10:16:28;17.10;81.10
55211;DHT22;41082;52.822;6.666;2022-09-16T10:19:05;17.10;83.60
55211;DHT22;41082;52.822;6.666;2022-09-16T10:21:43;17.30;80.00
55211;DHT22;41082;52.822;6.666;2022-09-16T10:24:35;17.30;84.30
55211;DHT22;41082;52.822;6.666;2022-09-16T10:27:16;17.40;81.10
55211;DHT22;41082;52.822;6.666;2022-09-16T10:29:42;17.40;81.40
55211;DHT22;41082;52.822;6.666;2022-09-16T10:32:12;17.40;78.10
55211;DHT22;41082;52.822;6.666;2022-09-16T10:34:40;17.40;79.00
55211;DHT22;41082;52.822;6.666;2022-09-16T10:39:39;16.90;92.40
55211;DHT22;41082;52.822;6.666;2022-09-16T10:42:36;16.40;92.90
55211;DHT22;41082;52.822;6.666;2022-09-16T10:45:23;16.00;93.90
55211;DHT22;41082;52.822;6.666;2022-09-16T10:47:53;15.90;95.00
55211;DHT22;41082;52.822;6.666;2022-09-16T10:50:19;15.90;95.60
55211;DHT22;41082;52.822;6.666;2022-09-16T10:52:47;15.90;96.10
55211;DHT22;41082;52.822;6.666;2022-09-16T10:55:26;16.00;95.80
55211;DHT22;41082;52.822;6.666;2022-09-16T10:58:05;16.10;96.20
55211;DHT22;41082;52.822;6.666;2022-09-16T11:00:46;16.30;96.00
55211;DHT22;41082;52.822;6.666;2022-09-16T11:06:23;16.60;95.90
55211;DHT22;41082;52.822;6.666;2022-09-16T11:09:30;16.80;93.10
55211;DHT22;41082;52.822;6.666;2022-09-16T11:12:13;17.00;86.50
55211;DHT22;41082;52.822;6.666;2022-09-16T11:17:57;17.10;90.20
55211;DHT22;41082;52.822;6.666;2022-09-16T11:20:58;17.20;90.00
55211;DHT22;41082;52.822;6.666;2022-09-16T11:26:15;17.20;85.20
55211;DHT22;41082;52.822;6.666;2022-09-16T11:28:45;17.20;86.90
55211;DHT22;41082;52.822;6.666;2022-09-16T11:33:49;17.20;87.30
55211;DHT22;41082;52.822;6.666;2022-09-16T11:36:39;17.20;80.80
55211;DHT22;41082;52.822;6.666;2022-09-16T11:39:42;16.90;80.10
55211;DHT22;41082;52.822;6.666;2022-09-16T11:42:33;16.80;81.20
55211;DHT22;41082;52.822;6.666;2022-09-16T11:48:22;16.80;86.80
55211;DHT22;41082;52.822;6.666;2022-09-16T11:51:14;17.00;85.30
55211;DHT22;41082;52.822;6.666;2022-09-16T11:59:23;17.50;84.70
55211;DHT22;41082;52.822;6.666;2022-09-16T12:01:55;17.40;82.90
55211;DHT22;41082;52.822;6.666;2022-09-16T12:04:24;17.20;90.70
55211;DHT22;41082;52.822;6.666;2022-09-16T12:06:57;16.90;92.40
55211;DHT22;41082;52.822;6.666;2022-09-16T12:09:53;16.60;92.90
55211;DHT22;41082;52.822;6.666;2022-09-16T12:12:24;16.50;94.20
55211;DHT22;41082;52.822;6.666;2022-09-16T12:15:02;16.50;95.50
55211;DHT22;41082;52.822;6.666;2022-09-16T12:17:36;16.60;96.30
55211;DHT22;41082;52.822;6.666;2022-09-16T12:20:13;16.70;96.80
55211;DHT22;41082;52.822;6.666;2022-09-16T12:22:53;16.80;97.50
55211;DHT22;41082;52.822;6.666;2022-09-16T12:28:43;16.90;96.70
55211;DHT22;41082;52.822;6.666;2022-09-16T12:31:23;16.80;96.80
55211;DHT22;41082;52.822;6.666;2022-09-16T12:34:30;16.70;97.30
55211;DHT22;41082;52.822;6.666;2022-09-16T12:37:19;16.40;98.30
55211;DHT22;41082;52.822;6.666;2022-09-16T12:39:48;16.20;98.40
55211;DHT22;41082;52.822;6.666;2022-09-16T12:45:32;15.70;99.80
55211;DHT22;41082;52.822;6.666;2022-09-16T12:48:09;15.60;99.90
55211;DHT22;41082;52.822;6.666;2022-09-16T12:50:46;15.60;99.90
55211;DHT22;41082;52.822;6.666;2022-09-16T12:53:50;15.60;99.90
55211;DHT22;41082;52.822;6.666;2022-09-16T13:02:19;16.10;99.90
55211;DHT22;41082;52.822;6.666;2022-09-16T13:04:48;16.20;99.90
55211;DHT22;41082;52.822;6.666;2022-09-16T13:07:27;16.30;99.90
55211;DHT22;41082;52.822;6.666;2022-09-16T13:10:15;16.20;99.90
55211;DHT22;41082;52.822;6.666;2022-09-16T13:12:41;16.30;98.90
55211;DHT22;41082;52.822;6.666;2022-09-16T13:15:31;16.40;98.50
55211;DHT22;41082;52.822;6.666;2022-09-16T13:18:24;16.40;98.30
55211;DHT22;41082;52.822;6.666;2022-09-16T13:20:58;16.50;98.00
55211;DHT22;41082;52.822;6.666;2022-09-16T13:23:30;16.50;97.70
55211;DHT22;41082;52.822;6.666;2022-09-16T13:26:03;16.60;97.50
55211;DHT22;41082;52.822;6.666;2022-09-16T13:38:49;17.00;92.80
55211;DHT22;41082;52.822;6.666;2022-09-16T13:46:50;16.90;93.30
55211;DHT22;41082;52.822;6.666;2022-09-16T13:49:23;16.90;94.80
55211;DHT22;41082;52.822;6.666;2022-09-16T13:51:50;16.90;94.80
55211;DHT22;41082;52.822;6.666;2022-09-16T13:54:24;16.90;95.00
55211;DHT22;41082;52.822;6.666;2022-09-16T13:59:58;16.90;96.90
55211;DHT22;41082;52.822;6.666;2022-09-16T14:16:22;16.90;96.80
55211;DHT22;41082;52.822;6.666;2022-09-16T14:18:55;16.80;97.00
55211;DHT22;41082;52.822;6.666;2022-09-16T14:21:23;16.50;98.20
55211;DHT22;41082;52.822;6.666;2022-09-16T14:23:49;16.30;99.10
55211;DHT22;41082;52.822;6.666;2022-09-16T14:26:17;15.90;99.60
55211;DHT22;41082;52.822;6.666;2022-09-16T14:28:43;15.70;99.90
55211;DHT22;41082;52.822;6.666;2022-09-16T14:31:14;15.50;99.90
55211;DHT22;41082;52.822;6.666;2022-09-16T14:34:01;15.40;99.90
55211;DHT22;41082;52.822;6.666;2022-09-16T14:36:34;15.30;99.90
55211;DHT22;41082;52.822;6.666;2022-09-16T14:39:09;15.20;99.90
55211;DHT22;41082;52.822;6.666;2022-09-16T14:41:43;15.10;99.90
55211;DHT22;41082;52.822;6.666;2022-09-16T14:46:57;15.10;99.90
55211;DHT22;41082;52.822;6.666;2022-09-16T14:49:24;15.10;99.90
55211;DHT22;41082;52.822;6.666;2022-09-16T14:51:54;15.10;99.90
55211;DHT22;41082;52.822;6.666;2022-09-16T14:54:23;15.00;99.90
55211;DHT22;41082;52.822;6.666;2022-09-16T14:57:05;15.00;99.90
55211;DHT22;41082;52.822;6.666;2022-09-16T14:59:38;15.00;99.90
55211;DHT22;41082;52.822;6.666;2022-09-16T15:02:23;15.00;99.90
55211;DHT22;41082;52.822;6.666;2022-09-16T15:07:37;15.00;99.90
55211;DHT22;41082;52.822;6.666;2022-09-16T15:10:13;15.00;99.90
55211;DHT22;41082;52.822;6.666;2022-09-16T15:12:51;15.00;99.90
55211;DHT22;41082;52.822;6.666;2022-09-16T15:15:46;15.00;99.90
55211;DHT22;41082;52.822;6.666;2022-09-16T15:20:51;15.00;99.90
55211;DHT22;41082;52.822;6.666;2022-09-16T15:23:24;15.00;99.90
55211;DHT22;41082;52.822;6.666;2022-09-16T15:25:56;15.10;99.90
55211;DHT22;41082;52.822;6.666;2022-09-16T15:28:23;15.10;99.90
55211;DHT22;41082;52.822;6.666;2022-09-16T15:30:51;15.10;99.90
55211;DHT22;41082;52.822;6.666;2022-09-16T15:33:49;15.10;99.90
55211;DHT22;41082;52.822;6.666;2022-09-16T15:36:35;15.00;99.90
55211;DHT22;41082;52.822;6.666;2022-09-16T15:39:01;15.00;99.90
55211;DHT22;41082;52.822;6.666;2022-09-16T15:41:26;14.90;99.90
55211;DHT22;41082;52.822;6.666;2022-09-16T15:43:52;15.00;99.90
55211;DHT22;41082;52.822;6.666;2022-09-16T15:46:20;14.90;99.90
55211;DHT22;41082;52.822;6.666;2022-09-16T15:48:55;14.90;99.90
55211;DHT22;41082;52.822;6.666;2022-09-16T15:51:44;14.80;99.90
55211;DHT22;41082;52.822;6.666;2022-09-16T15:56:54;14.70;99.90
55211;DHT22;41082;52.822;6.666;2022-09-16T16:00:07;14.70;99.90
55211;DHT22;41082;52.822;6.666;2022-09-16T16:05:26;14.60;99.90
55211;DHT22;41082;52.822;6.666;2022-09-16T16:08:03;14.60;99.90
55211;DHT22;41082;52.822;6.666;2022-09-16T16:10:30;14.50;99.90
55211;DHT22;41082;52.822;6.666;2022-09-16T16:12:58;14.40;99.90
55211;DHT22;41082;52.822;6.666;2022-09-16T16:15:36;14.30;99.90
55211;DHT22;41082;52.822;6.666;2022-09-16T16:18:04;14.20;99.90
55211;DHT22;41082;52.822;6.666;2022-09-16T16:20:31;14.20;99.90
55211;DHT22;41082;52.822;6.666;2022-09-16T16:22:58;14.20;99.90
55211;DHT22;41082;52.822;6.666;2022-09-16T16:25:25;14.10;99.90
55211;DHT22;41082;52.822;6.666;2022-09-16T16:27:50;14.10;99.90
55211;DHT22;41082;52.822;6.666;2022-09-16T16:30:16;14.00;99.90
55211;DHT22;41082;52.822;6.666;2022-09-16T16:32:42;14.00;99.90
55211;DHT22;41082;52.822;6.666;2022-09-16T16:35:08;13.90;99.90
55211;DHT22;41082;52.822;6.666;2022-09-16T16:37:34;13.80;99.90
55211;DHT22;41082;52.822;6.666;2022-09-16T16:40:00;13.80;99.90
55211;DHT22;41082;52.822;6.666;2022-09-16T16:42:25;13.70;99.90
55211;DHT22;41082;52.822;6.666;2022-09-16T16:44:53;13.70;99.90
55211;DHT22;41082;52.822;6.666;2022-09-16T16:47:18;13.70;99.90
55211;DHT22;41082;52.822;6.666;2022-09-16T16:49:44;13.70;99.90
55211;DHT22;41082;52.822;6.666;2022-09-16T16:52:09;13.70;99.90
55211;DHT22;41082;52.822;6.666;2022-09-16T16:54:35;13.70;99.90
55211;DHT22;41082;52.822;6.666;2022-09-16T16:57:02;13.70;99.90
55211;DHT22;41082;52.822;6.666;2022-09-16T16:59:28;13.70;99.90
55211;DHT22;41082;52.822;6.666;2022-09-16T17:01:55;13.80;99.90
55211;DHT22;41082;52.822;6.666;2022-09-16T17:04:23;13.80;99.90
55211;DHT22;41082;52.822;6.666;2022-09-16T17:06:49;13.70;99.90
55211;DHT22;41082;52.822;6.666;2022-09-16T17:09:15;13.70;99.90
55211;DHT22;41082;52.822;6.666;2022-09-16T17:11:58;13.70;99.90
55211;DHT22;41082;52.822;6.666;2022-09-16T17:14:26;13.70;99.90
55211;DHT22;41082;52.822;6.666;2022-09-16T17:16:53;13.60;99.90
55211;DHT22;41082;52.822;6.666;2022-09-16T17:19:20;13.60;99.90
55211;DHT22;41082;52.822;6.666;2022-09-16T17:21:46;13.50;99.90
55211;DHT22;41082;52.822;6.666;2022-09-16T17:24:14;13.60;99.90
55211;DHT22;41082;52.822;6.666;2022-09-16T17:26:40;13.50;99.90
55211;DHT22;41082;52.822;6.666;2022-09-16T17:29:06;13.40;99.90
55211;DHT22;41082;52.822;6.666;2022-09-16T17:31:33;13.40;99.90
55211;DHT22;41082;52.822;6.666;2022-09-16T17:34:01;13.40;99.90
55211;DHT22;41082;52.822;6.666;2022-09-16T17:36:30;13.30;99.90
55211;DHT22;41082;52.822;6.666;2022-09-16T17:39:04;13.20;99.90
55211;DHT22;41082;52.822;6.666;2022-09-16T17:41:31;13.20;99.90
55211;DHT22;41082;52.822;6.666;2022-09-16T17:43:58;13.20;99.90
55211;DHT22;41082;52.822;6.666;2022-09-16T17:46:24;13.20;99.90
55211;DHT22;41082;52.822;6.666;2022-09-16T17:48:52;13.20;99.90
55211;DHT22;41082;52.822;6.666;2022-09-16T17:51:22;13.20;99.90
55211;DHT22;41082;52.822;6.666;2022-09-16T17:53:48;13.10;99.90
55211;DHT22;41082;52.822;6.666;2022-09-16T17:56:14;13.10;99.90
55211;DHT22;41082;52.822;6.666;2022-09-16T17:58:44;13.10;99.90
55211;DHT22;41082;52.822;6.666;2022-09-16T18:01:15;13.10;99.90
55211;DHT22;41082;52.822;6.666;2022-09-16T18:03:43;13.10;99.90
55211;DHT22;41082;52.822;6.666;2022-09-16T18:06:14;13.10;99.90
55211;DHT22;41082;52.822;6.666;2022-09-16T18:08:40;13.10;99.90
55211;DHT22;41082;52.822;6.666;2022-09-16T18:11:08;13.00;99.90
55211;DHT22;41082;52.822;6.666;2022-09-16T18:13:34;13.00;99.90
55211;DHT22;41082;52.822;6.666;2022-09-16T18:16:09;13.00;99.90
55211;DHT22;41082;52.822;6.666;2022-09-16T18:18:36;13.00;99.90
55211;DHT22;41082;52.822;6.666;2022-09-16T18:21:03;13.00;99.90
55211;DHT22;41082;52.822;6.666;2022-09-16T18:23:29;13.00;99.90
55211;DHT22;41082;52.822;6.666;2022-09-16T18:25:55;13.00;99.90
55211;DHT22;41082;52.822;6.666;2022-09-16T18:28:21;13.00;99.90
55211;DHT22;41082;52.822;6.666;2022-09-16T18:30:59;13.00;99.90
55211;DHT22;41082;52.822;6.666;2022-09-16T18:33:25;13.00;99.90
55211;DHT22;41082;52.822;6.666;2022-09-16T18:35:51;12.90;99.90
55211;DHT22;41082;52.822;6.666;2022-09-16T18:38:21;12.90;99.90
55211;DHT22;41082;52.822;6.666;2022-09-16T18:40:47;12.90;99.90